createdAt,value
2022-09-12T00:02:11.347Z,99.90
2022-09-12T00:04:44.540Z,99.90
2022-09-12T00:07:14.676Z,99.90
2022-09-12T00:09:44.736Z,99.90
2022-09-12T00:12:14.837Z,99.90
2022-09-12T00:14:45.015Z,99.90
2022-09-12T00:17:22.004Z,99.90
2022-09-12T00:19:52.263Z,99.90
2022-09-12T00:22:22.447Z,99.90
2022-09-12T00:24:52.491Z,99.90
2022-09-12T00:27:24.931Z,99.90
2022-09-12T00:29:55.183Z,99.90
2022-09-12T00:32:27.924Z,99.90
2022-09-12T00:34:58.027Z,99.90
2022-09-12T00:37:28.127Z,99.90
2022-09-12T00:39:58.253Z,99.90
2022-09-12T00:42:28.370Z,99.90
2022-09-12T00:44:58.468Z,99.90
2022-09-12T00:47:34.710Z,99.90
2022-09-12T00:50:11.681Z,99.90
2022-09-12T00:52:53.195Z,99.90
2022-09-12T00:55:31.447Z,99.90
2022-09-12T00:58:10.742Z,99.90
2022-09-12T01:00:43.940Z,99.90
2022-09-12T01:03:20.596Z,99.90
2022-09-12T01:06:05.915Z,99.90
2022-09-12T01:08:39.001Z,99.90
2022-09-12T01:11:11.212Z,99.90
2022-09-12T01:13:41.360Z,99.90
2022-09-12T01:16:11.926Z,99.90
2022-09-12T01:19:01.778Z,99.90
2022-09-12T01:21:55.539Z,99.90
2022-09-12T01:25:05.605Z,99.90
2022-09-12T01:27:51.487Z,99.90
2022-09-12T01:30:48.198Z,99.90
2022-09-12T01:33:50.077Z,99.90
2022-09-12T01:36:48.676Z,99.90
2022-09-12T01:39:33.316Z,99.90
2022-09-12T01:42:19.320Z,99.90
2022-09-12T01:45:05.057Z,99.90
2022-09-12T01:47:50.926Z,99.90
2022-09-12T01:50:30.732Z,99.90
2022-09-12T01:53:14.656Z,99.90
2022-09-12T01:55:53.771Z,99.90
2022-09-12T01:58:30.494Z,99.90
2022-09-12T02:01:09.660Z,99.90
2022-09-12T02:03:57.043Z,99.90
2022-09-12T02:06:36.474Z,99.90
2022-09-12T02:09:15.108Z,99.90
2022-09-12T02:11:47.775Z,99.90
2022-09-12T02:14:25.013Z,99.90
2022-09-12T02:17:02.378Z,99.90
2022-09-12T02:19:45.700Z,99.90
2022-09-12T02:22:22.965Z,99.90
2022-09-12T02:24:58.644Z,99.90
2022-09-12T02:27:38.840Z,99.90
2022-09-12T02:30:14.405Z,99.90
2022-09-12T02:32:58.146Z,99.90
2022-09-12T02:35:53.994Z,99.90
2022-09-12T02:38:32.894Z,99.90
2022-09-12T02:41:03.012Z,99.90
2022-09-12T02:43:44.780Z,99.90
2022-09-12T02:46:22.529Z,99.90
2022-09-12T02:48:58.257Z,99.90
2022-09-12T02:51:31.023Z,99.90
2022-09-12T02:54:03.114Z,99.90
2022-09-12T02:56:36.804Z,99.90
2022-09-12T02:59:12.519Z,99.90
2022-09-12T03:02:18.331Z,99.90
2022-09-12T03:05:21.704Z,99.90
2022-09-12T03:08:29.351Z,99.90
2022-09-12T03:11:42.436Z,99.90
2022-09-12T03:14:31.035Z,99.90
2022-09-12T03:17:12.919Z,99.90
2022-09-12T03:19:57.436Z,99.90
2022-09-12T03:22:36.559Z,99.90
2022-09-12T03:25:20.370Z,99.90
2022-09-12T03:28:06.204Z,99.90
2022-09-12T03:30:42.334Z,99.90
2022-09-12T03:33:23.154Z,99.90
2022-09-12T03:35:54.393Z,99.90
2022-09-12T03:38:24.570Z,99.90
2022-09-12T03:41:02.176Z,99.90
2022-09-12T03:43:35.352Z,99.90
2022-09-12T03:46:10.934Z,99.90
2022-09-12T03:48:41.036Z,99.90
2022-09-12T03:51:14.232Z,99.90
2022-09-12T03:53:47.583Z,99.90
2022-09-12T03:56:20.876Z,99.90
2022-09-12T03:58:53.984Z,99.90
2022-09-12T04:01:24.918Z,99.90
2022-09-12T04:03:58.300Z,99.90
2022-09-12T04:06:28.392Z,99.90
2022-09-12T04:08:58.659Z,99.90
2022-09-12T04:11:32.386Z,99.90
2022-09-12T04:14:02.469Z,99.90
2022-09-12T04:16:35.618Z,99.90
2022-09-12T04:19:09.225Z,99.90
2022-09-12T04:21:39.575Z,99.90
2022-09-12T04:24:15.473Z,99.90
2022-09-12T04:26:51.171Z,99.90
2022-09-12T04:29:21.290Z,99.90
2022-09-12T04:31:51.903Z,99.90
2022-09-12T04:34:28.163Z,99.90
2022-09-12T04:36:58.243Z,99.90
2022-09-12T04:39:28.500Z,99.90
2022-09-12T04:42:04.412Z,99.90
2022-09-12T04:44:37.609Z,99.90
2022-09-12T04:47:07.941Z,99.90
2022-09-12T04:49:38.227Z,99.90
2022-09-12T04:52:08.603Z,99.90
2022-09-12T04:54:51.031Z,99.90
2022-09-12T04:57:26.716Z,99.90
2022-09-12T04:59:56.870Z,99.90
2022-09-12T05:02:27.033Z,99.90
2022-09-12T05:05:04.335Z,99.90
2022-09-12T05:07:34.844Z,99.90
2022-09-12T05:10:05.806Z,99.90
2022-09-12T05:12:38.640Z,99.90
2022-09-12T05:15:11.585Z,99.90
2022-09-12T05:17:48.020Z,99.90
2022-09-12T05:20:18.335Z,99.90
2022-09-12T05:22:48.486Z,99.90
2022-09-12T05:25:18.787Z,99.90
2022-09-12T05:27:57.670Z,99.90
2022-09-12T05:30:27.755Z,99.90
2022-09-12T05:32:57.901Z,99.90
2022-09-12T05:35:27.977Z,99.90
2022-09-12T05:37:58.084Z,99.90
2022-09-12T05:40:28.176Z,99.90
2022-09-12T05:43:06.691Z,99.90
2022-09-12T05:45:37.075Z,99.90
2022-09-12T05:48:07.332Z,99.90
2022-09-12T05:50:37.484Z,99.90
2022-09-12T05:53:10.027Z,99.90
2022-09-12T05:55:43.054Z,99.90
2022-09-12T05:58:15.725Z,99.90
2022-09-12T06:00:50.207Z,99.90
2022-09-12T06:03:20.400Z,99.90
2022-09-12T06:05:50.806Z,99.90
2022-09-12T06:08:21.044Z,99.90
2022-09-12T06:10:51.246Z,99.90
2022-09-12T06:13:23.936Z,99.90
2022-09-12T06:15:54.313Z,99.90
2022-09-12T06:18:24.407Z,99.90
2022-09-12T06:20:54.462Z,99.90
2022-09-12T06:23:24.508Z,99.90
2022-09-12T06:25:55.278Z,99.90
2022-09-12T06:28:29.113Z,99.90
2022-09-12T06:31:09.796Z,99.90
2022-09-12T06:33:43.027Z,99.90
2022-09-12T06:36:17.825Z,99.90
2022-09-12T06:38:48.852Z,99.90
2022-09-12T06:41:19.289Z,99.90
2022-09-12T06:43:52.077Z,99.90
2022-09-12T06:46:25.726Z,99.90
2022-09-12T06:48:56.263Z,99.90
2022-09-12T06:51:29.195Z,99.90
2022-09-12T06:54:01.029Z,99.90
2022-09-12T06:56:31.540Z,99.90
2022-09-12T06:59:07.078Z,99.90
2022-09-12T07:01:37.224Z,99.90
2022-09-12T07:04:08.191Z,99.90
2022-09-12T07:06:42.380Z,99.90
2022-09-12T07:09:16.347Z,99.90
2022-09-12T07:11:47.635Z,99.90
2022-09-12T07:14:20.277Z,99.90
2022-09-12T07:16:50.419Z,99.90
2022-09-12T07:19:20.493Z,99.90
2022-09-12T07:21:52.429Z,99.90
2022-09-12T07:24:25.351Z,99.90
2022-09-12T07:26:56.179Z,57.80
2022-09-12T07:29:37.705Z,7.40
2022-09-12T07:32:09.915Z,1.00
2022-09-12T07:34:40.266Z,1.00
2022-09-12T07:37:10.323Z,1.00
2022-09-12T07:39:40.564Z,1.00
2022-09-12T07:42:13.483Z,1.00
2022-09-12T07:44:46.939Z,1.00
2022-09-12T07:47:19.360Z,1.00
2022-09-12T07:49:52.925Z,1.00
2022-09-12T07:52:25.720Z,1.00
2022-09-12T07:54:58.728Z,1.00
2022-09-12T07:57:28.852Z,1.00
2022-09-12T08:00:04.596Z,1.00
2022-09-12T08:02:35.047Z,1.00
2022-09-12T08:05:05.227Z,1.00
2022-09-12T08:07:35.408Z,1.00
2022-09-12T08:10:06.564Z,99.90
2022-09-12T08:12:36.779Z,1.00
2022-09-12T08:15:11.263Z,99.90
2022-09-12T08:17:41.511Z,1.00
2022-09-12T08:20:12.324Z,1.00
2022-09-12T08:22:43.348Z,99.90
2022-09-12T08:25:14.024Z,1.00
2022-09-12T08:27:46.999Z,1.00
2022-09-12T08:30:22.660Z,1.00
2022-09-12T08:32:52.768Z,1.00
2022-09-12T08:35:22.809Z,99.90
2022-09-12T08:37:52.855Z,99.90
2022-09-12T08:40:25.252Z,1.00
2022-09-12T08:43:14.157Z,99.90
2022-09-12T08:46:03.005Z,1.00
2022-09-12T08:48:33.172Z,1.00
2022-09-12T08:51:05.179Z,1.00
2022-09-12T08:53:39.693Z,1.00
2022-09-12T08:56:14.879Z,1.00
2022-09-12T08:58:49.369Z,99.90
2022-09-12T09:01:33.953Z,99.90
2022-09-12T09:04:46.730Z,1.00
2022-09-12T09:07:34.192Z,1.00
2022-09-12T09:10:21.723Z,99.90
2022-09-12T09:13:06.345Z,99.90
2022-09-12T09:16:00.301Z,1.00
2022-09-12T09:18:37.016Z,99.90
2022-09-12T09:21:24.076Z,99.90
2022-09-12T09:24:05.108Z,99.90
2022-09-12T09:26:47.096Z,1.00
2022-09-12T09:29:26.127Z,1.00
2022-09-12T09:32:02.465Z,1.00
2022-09-12T09:34:38.495Z,1.00
2022-09-12T09:37:19.627Z,1.00
2022-09-12T09:40:06.675Z,1.00
2022-09-12T09:42:47.252Z,1.00
2022-09-12T09:45:29.110Z,1.00
2022-09-12T09:48:16.200Z,1.00
2022-09-12T09:50:51.156Z,1.00
2022-09-12T09:53:41.452Z,1.00
2022-09-12T09:56:23.365Z,1.00
2022-09-12T09:58:53.466Z,1.00
2022-09-12T10:01:29.406Z,1.00
2022-09-12T10:04:00.070Z,1.00
2022-09-12T10:06:40.320Z,1.00
2022-09-12T10:09:33.080Z,1.00
2022-09-12T10:12:23.077Z,1.00
2022-09-12T10:15:05.727Z,1.00
2022-09-12T10:17:46.430Z,1.00
2022-09-12T10:20:34.209Z,1.00
2022-09-12T10:23:31.256Z,1.00
2022-09-12T10:26:06.206Z,1.00
2022-09-12T10:28:43.427Z,1.00
2022-09-12T10:31:29.557Z,1.00
2022-09-12T10:34:05.612Z,1.00
2022-09-12T10:36:42.422Z,1.00
2022-09-12T10:39:25.076Z,1.00
2022-09-12T10:41:55.479Z,1.00
2022-09-12T10:44:31.064Z,1.00
2022-09-12T10:47:03.567Z,1.00
2022-09-12T10:49:38.165Z,1.00
2022-09-12T10:52:24.270Z,1.00
2022-09-12T10:54:57.774Z,1.00
2022-09-12T10:57:53.530Z,1.00
2022-09-12T11:00:30.439Z,1.00
2022-09-12T11:03:20.173Z,1.00
2022-09-12T11:05:58.048Z,1.00
2022-09-12T11:08:54.987Z,1.00
2022-09-12T11:12:00.968Z,1.00
2022-09-12T11:14:58.475Z,1.00
2022-09-12T11:17:44.304Z,1.00
2022-09-12T11:20:53.307Z,1.00
2022-09-12T11:23:59.326Z,1.00
2022-09-12T11:26:53.392Z,1.00
2022-09-12T11:29:49.482Z,1.00
2022-09-12T11:33:07.680Z,1.00
2022-09-12T11:35:45.931Z,1.00
2022-09-12T11:38:56.797Z,99.90
2022-09-12T11:41:33.842Z,1.00
2022-09-12T11:44:18.156Z,99.90
2022-09-12T11:46:52.044Z,99.90
2022-09-12T11:49:36.522Z,99.90
2022-09-12T11:52:16.323Z,1.00
2022-09-12T11:54:56.128Z,1.00
2022-09-12T11:57:38.727Z,1.00
2022-09-12T12:00:24.643Z,99.90
2022-09-12T12:03:11.380Z,99.90
2022-09-12T12:05:52.238Z,99.90
2022-09-12T12:08:24.910Z,99.90
2022-09-12T12:11:00.055Z,1.00
2022-09-12T12:13:38.667Z,1.00
2022-09-12T12:16:24.044Z,1.00
2022-09-12T12:19:00.242Z,1.00
2022-09-12T12:21:42.942Z,99.90
2022-09-12T12:24:22.055Z,99.90
2022-09-12T12:27:04.740Z,1.00
2022-09-12T12:29:46.832Z,1.00
2022-09-12T12:32:34.521Z,99.90
2022-09-12T12:35:36.043Z,99.90
2022-09-12T12:38:08.509Z,99.90
2022-09-12T12:40:38.663Z,99.90
2022-09-12T12:43:34.963Z,1.00
2022-09-12T12:46:17.329Z,99.90
2022-09-12T12:49:00.086Z,1.00
2022-09-12T12:51:47.565Z,99.90
2022-09-12T12:54:58.010Z,99.90
2022-09-12T12:57:42.990Z,99.90
2022-09-12T13:00:38.390Z,1.00
2022-09-12T13:03:31.730Z,1.00
2022-09-12T13:06:10.369Z,1.00
2022-09-12T13:08:58.895Z,99.90
2022-09-12T13:11:37.247Z,1.00
2022-09-12T13:14:10.535Z,99.90
2022-09-12T13:16:43.112Z,99.90
2022-09-12T13:19:21.752Z,99.90
2022-09-12T13:22:12.984Z,99.90
2022-09-12T13:24:48.811Z,1.00
2022-09-12T13:27:24.040Z,1.00
2022-09-12T13:30:12.199Z,99.90
2022-09-12T13:32:45.119Z,99.90
2022-09-12T13:35:26.281Z,99.90
2022-09-12T13:38:11.764Z,99.90
2022-09-12T13:41:05.819Z,99.90
2022-09-12T13:43:46.859Z,99.90
2022-09-12T13:46:33.092Z,1.00
2022-09-12T13:49:14.181Z,99.90
2022-09-12T13:51:46.035Z,99.90
2022-09-12T13:54:24.534Z,1.00
2022-09-12T13:56:55.038Z,1.00
2022-09-12T13:59:27.969Z,1.00
2022-09-12T14:01:58.055Z,1.00
2022-09-12T14:04:42.281Z,8.70
2022-09-12T14:07:20.337Z,99.90
2022-09-12T14:09:58.867Z,1.00
2022-09-12T14:12:34.928Z,99.90
2022-09-12T14:15:10.281Z,99.90
2022-09-12T14:17:43.336Z,19.60
2022-09-12T14:20:19.967Z,1.00
2022-09-12T14:22:58.393Z,1.00
2022-09-12T14:25:47.801Z,1.00
2022-09-12T14:28:23.814Z,1.00
2022-09-12T14:31:06.869Z,1.00
2022-09-12T14:33:50.427Z,1.00
2022-09-12T14:36:27.374Z,1.00
2022-09-12T14:39:02.898Z,1.00
2022-09-12T14:41:41.208Z,1.00
2022-09-12T14:44:20.620Z,1.00
2022-09-12T14:46:51.835Z,1.00
2022-09-12T14:49:31.178Z,1.00
2022-09-12T14:52:04.651Z,1.00
2022-09-12T14:54:44.473Z,1.00
2022-09-12T14:57:42.268Z,1.00
2022-09-12T15:00:26.656Z,1.00
2022-09-12T15:02:57.395Z,1.00
2022-09-12T15:05:31.279Z,1.00
2022-09-12T15:08:08.223Z,22.40
2022-09-12T15:10:47.584Z,99.90
2022-09-12T15:13:37.960Z,99.90
2022-09-12T15:16:12.561Z,99.90
2022-09-12T15:18:42.791Z,99.90
2022-09-12T15:21:21.475Z,10.40
2022-09-12T15:23:53.845Z,34.70
2022-09-12T15:26:27.567Z,55.90
2022-09-12T15:29:03.274Z,99.90
2022-09-12T15:31:35.265Z,20.50
2022-09-12T15:34:06.007Z,6.00
2022-09-12T15:36:36.144Z,1.00
2022-09-12T15:39:09.030Z,11.20
2022-09-12T15:41:41.247Z,1.00
2022-09-12T15:44:16.000Z,1.00
2022-09-12T15:46:46.582Z,1.00
2022-09-12T15:49:21.367Z,21.60
2022-09-12T15:51:51.451Z,1.00
2022-09-12T15:54:25.714Z,1.00
2022-09-12T15:56:58.703Z,1.00
2022-09-12T15:59:31.402Z,49.50
2022-09-12T16:02:04.627Z,99.90
2022-09-12T16:04:38.177Z,99.90
2022-09-12T16:07:08.391Z,99.90
2022-09-12T16:09:38.488Z,99.90
2022-09-12T16:12:09.116Z,99.90
2022-09-12T16:14:43.803Z,99.90
2022-09-12T16:17:24.194Z,99.90
2022-09-12T16:19:54.963Z,51.50
2022-09-12T16:22:25.495Z,54.10
2022-09-12T16:24:55.824Z,99.90
2022-09-12T16:27:26.105Z,99.90
2022-09-12T16:30:01.840Z,99.90
2022-09-12T16:32:32.002Z,55.30
2022-09-12T16:35:02.591Z,1.00
2022-09-12T16:37:36.758Z,29.60
2022-09-12T16:40:09.394Z,99.90
2022-09-12T16:42:43.899Z,99.90
2022-09-12T16:45:21.589Z,99.90
2022-09-12T16:47:51.632Z,99.90
2022-09-12T16:50:21.773Z,99.90
2022-09-12T16:52:51.848Z,99.90
2022-09-12T16:55:22.360Z,99.90
2022-09-12T16:57:52.432Z,99.90
2022-09-12T17:00:25.284Z,1.00
2022-09-12T17:02:55.834Z,1.00
2022-09-12T17:05:27.904Z,1.00
2022-09-12T17:07:57.985Z,1.00
2022-09-12T17:10:31.031Z,1.00
2022-09-12T17:13:01.337Z,1.00
2022-09-12T17:15:34.043Z,1.00
2022-09-12T17:18:09.409Z,80.90
2022-09-12T17:20:39.760Z,99.90
2022-09-12T17:23:12.855Z,99.90
2022-09-12T17:25:43.292Z,99.90
2022-09-12T17:28:13.322Z,1.00
2022-09-12T17:30:46.130Z,99.90
2022-09-12T17:33:16.210Z,1.00
2022-09-12T17:35:49.340Z,1.00
2022-09-12T17:38:24.551Z,93.70
2022-09-12T17:40:59.936Z,99.90
2022-09-12T17:43:30.209Z,1.00
2022-09-12T17:46:03.186Z,99.90
2022-09-12T17:48:33.477Z,1.00
2022-09-12T17:51:11.372Z,80.10
2022-09-12T17:53:41.767Z,1.00
2022-09-12T17:56:13.358Z,1.00
2022-09-12T17:58:46.091Z,99.90
2022-09-12T18:01:31.530Z,99.90
2022-09-12T18:04:05.858Z,1.00
2022-09-12T18:06:40.299Z,99.90
2022-09-12T18:09:12.639Z,1.00
2022-09-12T18:11:42.687Z,1.00
2022-09-12T18:14:20.342Z,99.90
2022-09-12T18:16:57.121Z,34.10
2022-09-12T18:19:28.842Z,99.90
2022-09-12T18:21:59.653Z,99.90
2022-09-12T18:24:30.105Z,99.90
2022-09-12T18:27:04.015Z,99.90
2022-09-12T18:29:36.914Z,1.00
2022-09-12T18:32:17.101Z,99.90
2022-09-12T18:34:47.432Z,99.90
2022-09-12T18:37:17.568Z,99.90
2022-09-12T18:39:47.658Z,99.90
2022-09-12T18:42:18.142Z,1.00
2022-09-12T18:44:48.236Z,1.00
2022-09-12T18:47:20.931Z,1.00
2022-09-12T18:49:50.973Z,1.00
2022-09-12T18:52:21.173Z,1.00
2022-09-12T18:54:51.234Z,1.00
2022-09-12T18:57:21.363Z,1.00
2022-09-12T18:59:51.816Z,1.00
2022-09-12T19:02:24.742Z,1.00
2022-09-12T19:04:57.819Z,1.00
2022-09-12T19:07:28.015Z,1.00
2022-09-12T19:10:01.136Z,1.00
2022-09-12T19:12:34.240Z,1.00
2022-09-12T19:15:04.613Z,1.00
2022-09-12T19:17:37.317Z,1.00
2022-09-12T19:20:11.245Z,1.00
2022-09-12T19:22:41.323Z,1.00
2022-09-12T19:25:12.239Z,1.00
2022-09-12T19:27:42.294Z,1.00
2022-09-12T19:30:14.601Z,1.00
2022-09-12T19:32:47.521Z,1.00
2022-09-12T19:35:23.477Z,1.00
2022-09-12T19:37:53.787Z,1.00
2022-09-12T19:40:24.106Z,1.00
2022-09-12T19:42:57.160Z,1.00
2022-09-12T19:45:30.179Z,1.00
2022-09-12T19:48:05.265Z,1.00
2022-09-12T19:50:36.018Z,1.00
2022-09-12T19:53:06.451Z,1.00
2022-09-12T19:55:39.954Z,1.00
2022-09-12T19:58:10.644Z,3.30
2022-09-12T20:00:41.462Z,8.90
2022-09-12T20:03:16.470Z,8.60
2022-09-12T20:05:46.515Z,12.50
2022-09-12T20:08:16.667Z,17.40
2022-09-12T20:10:46.973Z,18.20
2022-09-12T20:13:19.467Z,21.50
2022-09-12T20:15:49.605Z,25.30
2022-09-12T20:18:25.168Z,21.80
2022-09-12T20:20:57.515Z,23.00
2022-09-12T20:23:27.680Z,20.30
2022-09-12T20:25:57.712Z,8.90
2022-09-12T20:28:27.777Z,3.80
2022-09-12T20:31:03.311Z,2.40
2022-09-12T20:33:36.447Z,1.00
2022-09-12T20:36:09.951Z,1.00
2022-09-12T20:38:40.488Z,1.00
2022-09-12T20:41:14.024Z,1.00
2022-09-12T20:43:44.140Z,6.50
2022-09-12T20:46:21.398Z,1.00
2022-09-12T20:48:58.624Z,1.00
2022-09-12T20:51:30.414Z,1.00
2022-09-12T20:54:03.307Z,1.00
2022-09-12T20:56:35.597Z,1.00
2022-09-12T20:59:05.759Z,1.00
2022-09-12T21:01:36.392Z,1.00
2022-09-12T21:04:14.313Z,1.00
2022-09-12T21:06:45.117Z,1.00
2022-09-12T21:09:15.242Z,1.00
2022-09-12T21:11:47.627Z,1.00
2022-09-12T21:14:17.739Z,1.00
2022-09-12T21:16:50.916Z,1.00
2022-09-12T21:19:26.665Z,1.00
2022-09-12T21:21:56.754Z,1.00
2022-09-12T21:24:26.880Z,1.00
2022-09-12T21:26:59.876Z,1.00
2022-09-12T21:29:32.298Z,1.00
2022-09-12T21:32:04.687Z,1.00
2022-09-12T21:34:37.340Z,1.00
2022-09-12T21:37:07.412Z,4.50
2022-09-12T21:39:37.490Z,8.80
2022-09-12T21:42:10.633Z,14.10
2022-09-12T21:44:40.778Z,11.20
2022-09-12T21:47:10.901Z,8.50
2022-09-12T21:49:43.692Z,4.10
2022-09-12T21:52:15.334Z,11.00
2022-09-12T21:54:45.412Z,11.90
2022-09-12T21:57:15.447Z,12.20
2022-09-12T21:59:45.548Z,18.10
2022-09-12T22:02:16.104Z,20.30
2022-09-12T22:04:50.084Z,24.60
2022-09-12T22:07:23.058Z,29.20
2022-09-12T22:09:53.831Z,37.10
2022-09-12T22:12:27.516Z,42.70
2022-09-12T22:14:57.939Z,45.30
2022-09-12T22:17:28.669Z,55.80
2022-09-12T22:20:01.395Z,49.80
2022-09-12T22:22:43.893Z,43.20
2022-09-12T22:25:16.500Z,51.40
2022-09-12T22:27:46.543Z,49.30
2022-09-12T22:30:16.886Z,59.50
2022-09-12T22:32:48.195Z,47.40
2022-09-12T22:35:21.573Z,52.80
2022-09-12T22:37:51.729Z,62.50
2022-09-12T22:40:21.984Z,55.00
2022-09-12T22:42:55.382Z,54.30
2022-09-12T22:45:25.885Z,62.90
2022-09-12T22:48:00.717Z,61.30
2022-09-12T22:50:36.960Z,65.80
2022-09-12T22:53:07.261Z,69.20
2022-09-12T22:55:39.920Z,70.90
2022-09-12T22:58:09.965Z,78.20
2022-09-12T23:00:48.295Z,93.70
2022-09-12T23:03:22.720Z,90.60
2022-09-12T23:05:55.475Z,90.50
2022-09-12T23:08:31.916Z,91.70
2022-09-12T23:11:06.524Z,77.00
2022-09-12T23:13:37.048Z,83.00
2022-09-12T23:16:10.317Z,86.50
2022-09-12T23:18:40.890Z,94.10
2022-09-12T23:21:16.004Z,97.10
2022-09-12T23:23:46.824Z,94.90
2022-09-12T23:26:19.995Z,99.10
2022-09-12T23:28:56.048Z,96.20
2022-09-12T23:31:30.690Z,99.10
2022-09-12T23:34:03.571Z,99.90
2022-09-12T23:36:36.916Z,99.90
2022-09-12T23:39:09.799Z,99.90
2022-09-12T23:41:40.513Z,99.30
2022-09-12T23:44:10.764Z,99.90
2022-09-12T23:46:50.029Z,99.90
2022-09-12T23:49:20.071Z,99.90
2022-09-12T23:51:52.894Z,99.90
2022-09-12T23:54:22.971Z,99.90
2022-09-12T23:56:53.109Z,99.90
2022-09-12T23:59:23.775Z,98.60
